Port O' Connor, Texas
Current Conditions -  °F | °C
As of 10:53 AM on Monday 22 Dec 2014 (Local Time) from KRKP Reporting Station
Overcast Overcast  
Wind Chill: 67°   Ceiling: 1100
Heat Index: 67°   Visibility: 10mi
Dew Point: 60°   Wind: 12mph
Humidity: 79%   Direction: 230°SW
Pressure: 29.79"   Gusts: 18mph
Location:  28.2231°N, 96.6507°W
Report Text: KRKP 221653Z AUTO 23010G16KT 10SM OVC011 19/16 A2979 RMK AO2 SLP088 T01940156
Loading
Personal Weather Stations






























Interactive Weather Map New forecast layout! Learn more

10-Day Weather Forecast

Advertisements
Track Severe Weather on mobile